Carp Lake, MI (49718)

2:53 PM EDT on August 27, 2016 (GMT -0400)
North Levering MI | | Change Station

Elev 741 ft 45.67 °N, 84.79 °W | Updated 4 seconds ago

Light Rain
Light Rain
69.8 °F
Feels Like 69.8 °F
N
6.5
Wind Variable Wind from SE
Gusts 6.5 mph

Today
High -- | Low -- °F
--% Chance of Precip.
Yesterday
High -- | Low -- °F
Precip. -- in
Pressure 30.13 in
Visibility 8.0 miles
Clouds Few 900 ft
Few 1500 ft
Overcast 5000 ft
Dew Point 67 °F
Humidity 91%
Rainfall 0.13 in
Snow Depth Not available.
6:54 AM 8:25 PM
Waning Crescent, 22% visible
METAR KPLN 271754Z AUTO 12005KT 8SM -RA FEW009 FEW015 OVC050 19/17 A3013 RMK AO2 SLP202 P0003 60011 T01890172 10189 20144 58019
Pressure 30.13 in
Visibility 8.0 miles
Clouds Few 900 ft
Few 1500 ft
Overcast 5000 ft
Dew Point 67 °F
Humidity 91%
Rainfall 0.13 in
Snow Depth Not available.
6:54 AM 8:25 PM
Waning Crescent, 22% visible
METAR KPLN 271754Z AUTO 12005KT 8SM -RA FEW009 FEW015 OVC050 19/17 A3013 RMK AO2 SLP202 P0003 60011 T01890172 10189 20144 58019

10-Day Weather Forecast

Almanac

Astronomy

Aug. 27, 2016 Rise Set
Actual Time
Civil Twilight
Nautical Twilight
Astronomical Twilight
Moon
Length of Visible Light
Length of Day
Tomorrow will be .
, % of the Moon is Illuminated

Today's Extremes

State Highs State Lows

Community

WunderPhotos

Upload Photos

1,935,399 photos uploaded!

WunderBlog® & News

Nearby

Air Quality

  Air Quality AQ Index Pollutant
Not available.

Snow Depth

Station Depth Elevation

Earthquake Activity

City Distance Mag. Time & Date
Minimum magnitude displayed is 2.5.

Coastal Water Temperatures

Place Temperature

Stations

Nearby Weather Stations

Station Location Temp. Windchill Dew Point Humidity Wind Precip. Elev Updated Type
                   

Watches & Warnings

There are currently no watches in effect.